Time;durP1;ratioP1;P1;durP2;ratioP2;P2;SDS_P1;SDS_P2;PMS_P1;PMS_P2;Temp;Humidity;BMP_temperature;BMP_pressure;BME280_temperature;BME280_humidity;BME280_pressure;Samples;Min_cycle;Max_cycle;Signal;HPM_P1;HPM_P2
2021/04/29 00:08:52;;;;;;;31.3;21.4;;;;;;;3;82.60059;97771.39;;;;
2021/04/29 00:18:49;;;;;;;25.1;22.4;;;;;;;2.8;80.50488;97776.87;;;;
2021/04/29 00:28:47;;;;;;;29.6;20.2;;;;;;;2.92;81.10449;97783.41;;;;
2021/04/29 00:38:45;;;;;;;24.4;21.1;;;;;;;2.91;80.02832;97789.84;;;;
2021/04/29 00:48:42;;;;;;;27.7;20.3;;;;;;;2.68;79.75293;97785.18;;;;
2021/04/29 00:58:40;;;;;;;24.4;21.5;;;;;;;2.42;80.61035;97786.41;;;;
2021/04/29 01:08:46;;;;;;;40;21.9;;;;;;;2.27;83.38965;97781.16;;;;
2021/04/29 01:18:35;;;;;;;27.4;22.1;;;;;;;2.17;84.64941;97778.55;;;;
2021/04/29 01:28:33;;;;;;;34.8;23.4;;;;;;;2;86.2832;97766.41;;;;
2021/04/29 01:38:31;;;;;;;45.3;28.5;;;;;;;1.99;87.1084;97770.13;;;;
2021/04/29 01:48:28;;;;;;;29.3;25.1;;;;;;;1.84;87.53027;97772.83;;;;
2021/04/29 01:58:26;;;;;;;29.9;25.7;;;;;;;1.79;88.89551;97766.75;;;;
2021/04/29 02:08:24;;;;;;;30;26.4;;;;;;;1.76;89.1543;97756.66;;;;
2021/04/29 02:18:23;;;;;;;34.5;27.3;;;;;;;1.68;90.31543;97763.32;;;;
2021/04/29 02:28:20;;;;;;;38.4;30.1;;;;;;;1.69;91.98828;97764.13;;;;
2021/04/29 02:38:20;;;;;;;46.5;28.1;;;;;;;1.79;94.10156;97743.64;;;;
2021/04/29 02:48:14;;;;;;;40.9;27.7;;;;;;;2.05;98.66602;97751.52;;;;
2021/04/29 02:58:13;;;;;;;32.9;26;;;;;;;2.41;98.66211;97755.56;;;;
2021/04/29 03:08:10;;;;;;;32.3;25.3;;;;;;;2.76;95.48047;97765.19;;;;
2021/04/29 03:18:07;;;;;;;36.9;25.2;;;;;;;3.04;95.29199;97765.24;;;;
2021/04/29 03:28:05;;;;;;;28.8;24.2;;;;;;;3.27;93.32227;97766.36;;;;
2021/04/29 03:38:03;;;;;;;36.1;23.4;;;;;;;3.47;91.57813;97758.17;;;;
2021/04/29 03:48:01;;;;;;;35;25.2;;;;;;;3.91;90.23242;97752.66;;;;
2021/04/29 03:57:59;;;;;;;31.2;25;;;;;;;4.29;90.61035;97750.05;;;;
2021/04/29 04:07:57;;;;;;;31.5;25.4;;;;;;;4.63;88.81934;97750.63;;;;
2021/04/29 04:17:55;;;;;;;34.5;23;;;;;;;4.98;86.7832;97750.1;;;;
2021/04/29 04:27:53;;;;;;;24.1;19.2;;;;;;;5.37;85.94922;97747.05;;;;
2021/04/29 04:37:51;;;;;;;25.5;20.8;;;;;;;5.8;84.00879;97760.15;;;;
2021/04/29 04:47:49;;;;;;;29.2;21.5;;;;;;;6.29;81.97363;97754.12;;;;
2021/04/29 04:57:47;;;;;;;32.4;28.8;;;;;;;6.78;81.70801;97745.28;;;;
2021/04/29 05:07:45;;;;;;;35.7;22.7;;;;;;;7.36;79.74902;97743.31;;;;
2021/04/29 05:17:44;;;;;;;29;22.5;;;;;;;7.78;79.38965;97739.27;;;;
2021/04/29 05:27:42;;;;;;;29.4;22.3;;;;;;;8.44;76.79297;97734.73;;;;
2021/04/29 05:37:40;;;;;;;38.4;24.4;;;;;;;8.99;75.74414;97751.03;;;;
2021/04/29 05:47:39;;;;;;;32.6;23.8;;;;;;;9.45;71.58887;97740.38;;;;
2021/04/29 05:57:37;;;;;;;32.5;23.9;;;;;;;9.54;72.06641;97735.75;;;;
2021/04/29 06:07:36;;;;;;;30.7;24.1;;;;;;;10.03;70.00098;97733.53;;;;
2021/04/29 06:17:34;;;;;;;24.6;20.7;;;;;;;10.66;67.20703;97720.94;;;;
2021/04/29 06:27:33;;;;;;;35.8;24.4;;;;;;;11.05;67.26758;97718.56;;;;
2021/04/29 06:37:32;;;;;;;31.4;21.7;;;;;;;11.33;66.53906;97704.48;;;;
2021/04/29 06:47:33;;;;;;;27.3;21.1;;;;;;;11.55;68.89746;97714.89;;;;
2021/04/29 06:57:30;;;;;;;30.4;21.1;;;;;;;12.35;64.61328;97715.17;;;;
2021/04/29 07:07:28;;;;;;;27.6;20.3;;;;;;;12.77;65.36816;97710.24;;;;
2021/04/29 07:17:27;;;;;;;24.5;18.5;;;;;;;13.33;61.12109;97721.89;;;;
2021/04/29 07:27:26;;;;;;;22.2;19.3;;;;;;;13.86;59.5957;97705.07;;;;
2021/04/29 07:37:26;;;;;;;25.3;17.2;;;;;;;13.88;59.01563;97700.08;;;;
2021/04/29 07:47:25;;;;;;;38.7;20.9;;;;;;;14.24;59.33691;97703.63;;;;
2021/04/29 07:57:24;;;;;;;24.4;17.6;;;;;;;14.92;55.42969;97699.36;;;;
2021/04/29 08:07:24;;;;;;;26.9;15;;;;;;;16.09;54.96777;97685.16;;;;
2021/04/29 08:17:22;;;;;;;11.7;7.1;;;;;;;16.77;49.49414;97681.47;;;;
2021/04/29 08:27:22;;;;;;;11;5.9;;;;;;;16.72;46.99609;97668.2;;;;
2021/04/29 08:37:21;;;;;;;7;3.9;;;;;;;16.76;48.375;97661.66;;;;
2021/04/29 08:47:21;;;;;;;7.9;5.7;;;;;;;17.47;50.85547;97646.08;;;;
2021/04/29 08:57:20;;;;;;;7.1;4.4;;;;;;;18.57;49.37207;97639.51;;;;
2021/04/29 09:07:21;;;;;;;5.8;3.7;;;;;;;18.22;52.21484;97636.58;;;;
2021/04/29 09:17:25;;;;;;;10.6;4.7;;;;;;;18.14;53.69727;97615.88;;;;
2021/04/29 09:27:23;;;;;;;7.9;4.3;;;;;;;18.78;53.25293;97611.55;;;;
2021/04/29 09:37:33;;;;;;;7.7;3.9;;;;;;;19.21;52.5625;97606.97;;;;
2021/04/29 09:47:20;;;;;;;5.9;3.3;;;;;;;20.08;49.9248;97581.61;;;;
2021/04/29 09:57:25;;;;;;;7.7;3.9;;;;;;;19.86;51.30469;97582.8;;;;
2021/04/29 10:07:21;;;;;;;6.6;2.1;;;;;;;19.93;49.13965;97574.59;;;;
2021/04/29 10:17:23;;;;;;;5.6;3.1;;;;;;;19.17;50.93457;97557;;;;
2021/04/29 10:27:25;;;;;;;9.7;3.6;;;;;;;19.14;52.28809;97572.23;;;;
2021/04/29 10:37:23;;;;;;;9.6;2.4;;;;;;;19.87;48.36719;97584.38;;;;
2021/04/29 10:47:28;;;;;;;7.7;2.1;;;;;;;19.54;49.00293;97560.2;;;;
2021/04/29 10:57:21;;;;;;;4.9;2.8;;;;;;;20.09;50.47168;97566.77;;;;
2021/04/29 11:07:26;;;;;;;5;2.6;;;;;;;19.66;49.91211;97576.19;;;;
2021/04/29 11:17:22;;;;;;;8.9;3.3;;;;;;;19.32;49.79199;97585.91;;;;
2021/04/29 11:27:17;;;;;;;6.5;3.2;;;;;;;19.32;50.20996;97594.11;;;;
2021/04/29 11:37:17;;;;;;;8.7;4.5;;;;;;;18.9;51.54199;97616.65;;;;
2021/04/29 11:47:17;;;;;;;8.5;4.3;;;;;;;18.7;52.59473;97612.68;;;;
2021/04/29 11:57:16;;;;;;;8.2;4.1;;;;;;;19.5;53.33984;97603.14;;;;
2021/04/29 12:07:16;;;;;;;14.8;4.8;;;;;;;20.06;52.31543;97591.39;;;;
2021/04/29 12:17:16;;;;;;;11.7;4.9;;;;;;;19.98;49.80859;97593.35;;;;
2021/04/29 12:27:16;;;;;;;7.5;4.4;;;;;;;19.59;48.96387;97596.11;;;;
2021/04/29 12:37:16;;;;;;;8.3;4.7;;;;;;;19.97;47.38965;97599.98;;;;
2021/04/29 12:47:16;;;;;;;9.1;6.1;;;;;;;19.29;50.4043;97592.95;;;;
2021/04/29 12:57:15;;;;;;;7.8;3.8;;;;;;;19.98;46.09863;97581.63;;;;
2021/04/29 13:07:15;;;;;;;8.4;4.2;;;;;;;20.56;46.16992;97586.57;;;;
2021/04/29 13:17:15;;;;;;;5.9;4.3;;;;;;;20.55;47.67188;97590.48;;;;
2021/04/29 13:27:15;;;;;;;9.3;5.7;;;;;;;20.47;46.53516;97587.02;;;;
2021/04/29 13:37:15;;;;;;;8.8;4.6;;;;;;;20.66;44.64258;97574.01;;;;
2021/04/29 13:47:15;;;;;;;7.3;5.1;;;;;;;20.81;44.08594;97565.34;;;;
2021/04/29 13:57:15;;;;;;;7.7;5.6;;;;;;;20.98;44.91992;97558.98;;;;
2021/04/29 14:07:15;;;;;;;5.7;3.6;;;;;;;20.97;42.46875;97556.63;;;;
2021/04/29 14:17:15;;;;;;;8.1;5.5;;;;;;;20.89;44.93457;97553.17;;;;
2021/04/29 14:27:15;;;;;;;10.2;5.2;;;;;;;21.45;42.63184;97562.98;;;;
2021/04/29 14:37:15;;;;;;;9.7;6.9;;;;;;;21.55;41.97461;97564.84;;;;
2021/04/29 14:47:15;;;;;;;9.4;6.5;;;;;;;21.94;42.74902;97575.51;;;;
2021/04/29 14:57:15;;;;;;;13.1;6.9;;;;;;;21.31;44.45117;97576.03;;;;
2021/04/29 15:07:15;;;;;;;11.9;10.4;;;;;;;20.65;45.08496;97562.3;;;;
2021/04/29 15:17:15;;;;;;;11.6;7.3;;;;;;;23.03;41.86816;97562.48;;;;
2021/04/29 15:27:15;;;;;;;33.1;28.5;;;;;;;22.64;42.04102;97561.41;;;;
2021/04/29 15:37:15;;;;;;;12.8;8.3;;;;;;;21.42;44.24023;97563;;;;
2021/04/29 15:47:16;;;;;;;10.4;6.2;;;;;;;23.28;41.28027;97572.34;;;;
2021/04/29 15:57:15;;;;;;;11.3;9;;;;;;;24.63;38.83691;97568.02;;;;
2021/04/29 16:07:16;;;;;;;17.3;10.3;;;;;;;23.74;38.54883;97564.14;;;;
2021/04/29 16:17:16;;;;;;;12.4;9.2;;;;;;;22.88;39.94141;97563.86;;;;
2021/04/29 16:27:17;;;;;;;12.8;8.2;;;;;;;21.41;44.18066;97558.73;;;;
2021/04/29 16:37:17;;;;;;;11;6.3;;;;;;;20.36;46.03418;97561.63;;;;
2021/04/29 16:47:17;;;;;;;13.9;7;;;;;;;20.02;47.29004;97566.78;;;;
2021/04/29 16:57:17;;;;;;;12.8;6.5;;;;;;;20.02;46.82422;97563.27;;;;
2021/04/29 17:07:17;;;;;;;9;5.8;;;;;;;19.64;47.08691;97575.03;;;;
2021/04/29 17:17:17;;;;;;;11.6;6.9;;;;;;;19.14;48.51953;97576.91;;;;
2021/04/29 17:27:17;;;;;;;10.4;6.1;;;;;;;18.42;51.6709;97583.3;;;;
2021/04/29 17:37:16;;;;;;;11.5;7.3;;;;;;;17.81;53.65723;97582.15;;;;
2021/04/29 17:47:16;;;;;;;11.2;8.1;;;;;;;17.13;54.2207;97580.01;;;;
2021/04/29 17:57:15;;;;;;;11.4;8.2;;;;;;;16.4;56.55957;97586.95;;;;
2021/04/29 18:07:15;;;;;;;16.4;10.8;;;;;;;15.71;57.76758;97582.09;;;;
2021/04/29 18:17:14;;;;;;;17.6;15.4;;;;;;;14.96;63.48926;97607.94;;;;
2021/04/29 18:27:13;;;;;;;22.8;16.9;;;;;;;14.77;65.85059;97616.11;;;;
2021/04/29 18:37:13;;;;;;;27;21.9;;;;;;;14.43;68.18652;97633.23;;;;
2021/04/29 18:47:14;;;;;;;31.8;19.2;;;;;;;14.04;68.28516;97629.64;;;;
2021/04/29 18:57:11;;;;;;;20.7;14.7;;;;;;;13.81;71.84863;97642.27;;;;
2021/04/29 19:07:10;;;;;;;21;15.3;;;;;;;13.79;72.4248;97639.11;;;;
2021/04/29 19:17:09;;;;;;;15.9;12.6;;;;;;;13.77;72.2168;97663.05;;;;
2021/04/29 19:27:08;;;;;;;16.3;11.4;;;;;;;13.77;71.56934;97677.39;;;;
2021/04/29 19:37:07;;;;;;;16.4;12.1;;;;;;;13.5;71.93555;97662.78;;;;
2021/04/29 19:47:06;;;;;;;16.2;14.5;;;;;;;13.24;73.1084;97667.13;;;;
2021/04/29 19:57:05;;;;;;;15.3;11.9;;;;;;;13.24;74.70996;97650.88;;;;
2021/04/29 20:07:08;;;;;;;16.6;12.9;;;;;;;13.46;75.0791;97637.56;;;;
2021/04/29 20:17:03;;;;;;;12.3;10.1;;;;;;;13.65;73.1875;97638.77;;;;
2021/04/29 20:27:02;;;;;;;13.4;10.1;;;;;;;13.77;72.2168;97633.27;;;;
2021/04/29 20:37:01;;;;;;;11.9;10.6;;;;;;;13.8;71.9834;97643.39;;;;
2021/04/29 20:47:00;;;;;;;23.4;13.5;;;;;;;13.38;72.86035;97643.92;;;;
2021/04/29 20:56:59;;;;;;;17.1;12.5;;;;;;;13;72.47852;97660.68;;;;
2021/04/29 21:06:58;;;;;;;16.4;13.9;;;;;;;12.71;74.48438;97652.91;;;;
2021/04/29 21:16:57;;;;;;;22.1;17.1;;;;;;;12.26;75.84766;97660.45;;;;
2021/04/29 21:26:56;;;;;;;21.4;16.8;;;;;;;11.89;79.13379;97659.72;;;;
2021/04/29 21:36:55;;;;;;;20.2;14.8;;;;;;;11.64;79.93652;97658.89;;;;
2021/04/29 21:46:54;;;;;;;17.8;13.1;;;;;;;11.54;80.59668;97657.43;;;;
2021/04/29 21:56:53;;;;;;;18.8;15.3;;;;;;;11.41;80.30078;97665.84;;;;
2021/04/29 22:06:51;;;;;;;13.4;10.9;;;;;;;11.19;81.63477;97658.14;;;;
2021/04/29 22:16:50;;;;;;;22.7;14.3;;;;;;;11.01;81.77246;97662.92;;;;
2021/04/29 22:26:49;;;;;;;15.8;11.7;;;;;;;10.84;83.05957;97652.31;;;;
2021/04/29 22:36:48;;;;;;;12.6;11.2;;;;;;;10.8;83.63867;97657.58;;;;
2021/04/29 22:46:55;;;;;;;13.4;11;;;;;;;10.91;84.65039;97664.14;;;;
2021/04/29 22:56:45;;;;;;;14.3;10.8;;;;;;;11.08;84.25488;97652.39;;;;
2021/04/29 23:06:44;;;;;;;17;11.7;;;;;;;11.2;83.96191;97648.94;;;;
2021/04/29 23:16:43;;;;;;;16.8;12.8;;;;;;;11.18;83.48438;97624.2;;;;
2021/04/29 23:26:41;;;;;;;17.2;12.3;;;;;;;10.99;83.36035;97630.92;;;;
2021/04/29 23:36:40;;;;;;;14.5;12.7;;;;;;;10.98;85.39648;97642.81;;;;
2021/04/29 23:46:39;;;;;;;14.7;9.9;;;;;;;11.18;84.91602;97643.08;;;;
2021/04/29 23:56:37;;;;;;;15.7;10.8;;;;;;;11.14;84.60352;97655.67;;;;
